Time;durP1;ratioP1;P1;durP2;ratioP2;P2;SDS_P1;SDS_P2;PMS_P1;PMS_P2;Temp;Humidity;BMP_temperature;BMP_pressure;BME280_temperature;BME280_humidity;BME280_pressure;Samples;Min_cycle;Max_cycle;Signal;HPM_P1;HPM_P2
2023/01/11 00:01:03;;;;;;;;;0.00;0.00;;;;;-146.37;100.00;59337.28;5064876;28;45357;-82
2023/01/11 00:03:30;;;;;;;;;1.50;0.75;;;;;-146.37;100.00;59337.28;5065174;28;45392;-82
2023/01/11 00:05:57;;;;;;;;;1.00;1.00;;;;;-146.37;100.00;59337.28;5046209;28;45461;-82
2023/01/11 00:08:24;;;;;;;;;1.00;1.00;;;;;-146.37;100.00;59337.28;5048353;28;45423;-81
2023/01/11 00:10:50;;;;;;;;;3.00;1.00;;;;;-146.37;100.00;59337.28;5047454;28;45485;-82
2023/01/11 00:13:16;;;;;;;;;0.75;0.75;;;;;-146.37;100.00;59337.28;5047089;28;47849;-82
2023/01/11 00:15:41;;;;;;;;;0.00;0.00;;;;;-146.37;100.00;59337.28;5066587;28;44919;-81
2023/01/11 00:18:08;;;;;;;;;0.25;0.25;;;;;-146.37;100.00;59337.28;5047828;28;45506;-82
2023/01/11 00:20:39;;;;;;;;;1.00;1.00;;;;;-146.37;100.00;59337.28;5049607;28;45540;-82
2023/01/11 00:23:04;;;;;;;;;1.00;1.00;;;;;-146.37;100.00;59337.28;5066279;28;45456;-83
2023/01/11 00:25:33;;;;;;;;;0.00;0.00;;;;;-146.37;100.00;59337.28;5062840;28;45385;-82
2023/01/11 00:27:58;;;;;;;;;2.00;1.00;;;;;-146.37;100.00;59337.28;5063494;28;45428;-83
2023/01/11 00:30:24;;;;;;;;;1.00;1.00;;;;;-146.37;100.00;59337.28;5065421;28;45386;-82
2023/01/11 00:32:57;;;;;;;;;1.00;1.00;;;;;-146.37;100.00;59337.28;5065207;28;45413;-82
2023/01/11 00:35:24;;;;;;;;;0.00;0.00;;;;;-146.37;100.00;59337.28;5046484;28;45530;-81
2023/01/11 00:37:49;;;;;;;;;1.00;0.25;;;;;-146.37;100.00;59337.28;5066084;28;45333;-81
2023/01/11 00:40:15;;;;;;;;;0.75;0.75;;;;;-146.37;100.00;59337.28;5047369;28;45492;-81
2023/01/11 00:48:09;;;;;;;;;0.75;0.75;;;;;-146.37;100.00;59337.28;5066948;28;45423;-82
2023/01/11 00:50:38;;;;;;;;;1.00;1.00;;;;;-146.37;100.00;59337.28;5070341;28;46678;-82
2023/01/11 00:53:04;;;;;;;;;0.50;0.50;;;;;-146.37;100.00;59337.28;5069749;28;46086;-82
2023/01/11 00:55:33;;;;;;;;;1.00;1.00;;;;;-146.37;100.00;59337.28;5067393;28;45462;-82
2023/01/11 00:57:59;;;;;;;;;0.00;0.00;;;;;-146.37;100.00;59337.28;5048714;28;45490;-82
2023/01/11 01:00:25;;;;;;;;;0.50;0.00;;;;;-146.37;100.00;59337.28;5066252;28;45437;-84
2023/01/11 01:02:51;;;;;;;;;0.00;0.00;;;;;-146.37;100.00;59337.28;5047664;28;47598;-82
2023/01/11 01:05:17;;;;;;;;;1.00;1.00;;;;;-146.37;100.00;59337.28;5047576;28;45417;-82
2023/01/11 01:07:43;;;;;;;;;2.75;2.75;;;;;-146.37;100.00;59337.28;5051210;28;45774;-82
2023/01/11 01:10:10;;;;;;;;;0.00;0.00;;;;;-146.37;100.00;59337.28;5029167;28;45540;-81
2023/01/11 01:15:20;;;;;;;;;0.25;0.25;;;;;-146.37;100.00;59337.28;5045396;28;45476;-81
2023/01/11 01:17:46;;;;;;;;;0.00;0.00;;;;;-146.37;100.00;59337.28;5045417;28;45509;-81
2023/01/11 01:20:13;;;;;;;;;0.00;0.00;;;;;-146.37;100.00;59337.28;5028212;28;45895;-82
2023/01/11 01:22:39;;;;;;;;;1.00;1.00;;;;;-146.37;100.00;59337.28;5027337;28;45558;-82
2023/01/11 01:25:04;;;;;;;;;0.00;0.00;;;;;-146.37;100.00;59337.28;5028736;28;45308;-82
2023/01/11 01:27:30;;;;;;;;;1.00;0.25;;;;;-146.37;100.00;59337.28;5028894;28;45427;-82
2023/01/11 01:29:55;;;;;;;;;0.00;0.00;;;;;-146.37;100.00;59337.28;5047014;28;45485;-82
2023/01/11 01:32:21;;;;;;;;;0.00;0.00;;;;;-146.37;100.00;59337.28;5045983;28;45367;-82
2023/01/11 01:34:46;;;;;;;;;0.00;0.00;;;;;-146.37;100.00;59337.28;5028736;28;45370;-82
2023/01/11 01:37:14;;;;;;;;;0.00;0.00;;;;;-146.37;100.00;59337.28;5046484;28;45344;-82
2023/01/11 01:43:09;;;;;;;;;0.00;0.00;;;;;-146.37;100.00;59337.28;5045146;28;46232;-83
2023/01/11 01:45:34;;;;;;;;;0.00;0.00;;;;;-146.37;100.00;59337.28;5028923;28;44794;-82
2023/01/11 01:48:01;;;;;;;;;0.00;0.00;;;;;-146.37;100.00;59337.28;5047414;28;45362;-82
2023/01/11 01:50:33;;;;;;;;;0.00;0.00;;;;;-146.37;100.00;59337.28;5047729;28;45398;-82
2023/01/11 01:56:41;;;;;;;;;0.00;0.00;;;;;-146.37;100.00;59337.28;5046675;28;44745;-82
2023/01/11 01:59:11;;;;;;;;;0.00;0.00;;;;;-146.37;100.00;59337.28;5027791;28;45528;-82
2023/01/11 02:01:46;;;;;;;;;0.00;0.00;;;;;-146.37;100.00;59337.28;5028163;28;45210;-82
2023/01/11 02:04:32;;;;;;;;;0.25;0.25;;;;;-146.37;100.00;59337.28;5046037;28;45410;-82
2023/01/11 02:07:00;;;;;;;;;0.00;0.00;;;;;-146.37;100.00;59337.28;5046247;28;45410;-82
2023/01/11 02:09:35;;;;;;;;;0.00;0.00;;;;;-146.37;100.00;59337.28;5028736;28;45335;-82
2023/01/11 02:12:02;;;;;;;;;0.00;0.00;;;;;-146.37;100.00;59337.28;5031573;28;45427;-82
2023/01/11 02:14:29;;;;;;;;;0.00;0.00;;;;;-146.37;100.00;59337.28;5030811;28;47166;-82
2023/01/11 02:16:55;;;;;;;;;0.00;0.00;;;;;-146.37;100.00;59337.28;5049043;28;44788;-82
2023/01/11 02:19:35;;;;;;;;;0.00;0.00;;;;;-146.37;100.00;59337.28;5048455;28;45406;-82
2023/01/11 02:22:32;;;;;;;;;0.00;0.00;;;;;-146.37;100.00;59337.28;5030230;28;45399;-82
2023/01/11 02:25:12;;;;;;;;;0.00;0.00;;;;;-146.37;100.00;59337.28;5030394;28;45949;-82
2023/01/11 02:28:16;;;;;;;;;0.00;0.00;;;;;-146.37;100.00;59337.28;5046792;28;45506;-82
2023/01/11 02:31:07;;;;;;;;;0.00;0.00;;;;;-146.37;100.00;59337.28;5037307;28;45410;-83
2023/01/11 02:33:35;;;;;;;;;0.00;0.00;;;;;-146.37;100.00;59337.28;5029517;28;45457;-82
2023/01/11 02:39:39;;;;;;;;;0.25;0.00;;;;;-146.37;100.00;59337.28;5070844;28;45867;-82
2023/01/11 02:45:14;;;;;;;;;0.00;0.00;;;;;-146.37;100.00;59337.28;5069874;28;45185;-82
2023/01/11 02:48:22;;;;;;;;;0.00;0.00;;;;;-146.37;100.00;59337.28;5066668;28;45333;-82
2023/01/11 02:51:16;;;;;;;;;0.00;0.00;;;;;-146.37;100.00;59337.28;5066928;28;45564;-82
2023/01/11 02:53:42;;;;;;;;;0.00;0.00;;;;;-146.37;100.00;59337.28;5050281;28;45339;-82
2023/01/11 02:56:12;;;;;;;;;0.00;0.00;;;;;-146.37;100.00;59337.28;5050386;28;45386;-82
2023/01/11 02:58:41;;;;;;;;;0.00;0.00;;;;;-146.37;100.00;59337.28;5067553;28;45297;-83
2023/01/11 03:01:07;;;;;;;;;0.00;0.00;;;;;-146.37;100.00;59337.28;5048383;28;45339;-82
2023/01/11 03:03:33;;;;;;;;;0.00;0.00;;;;;-146.37;100.00;59337.28;5049295;28;46015;-82
2023/01/11 03:06:12;;;;;;;;;0.00;0.00;;;;;-146.37;100.00;59337.28;5051687;28;45427;-83
2023/01/11 03:09:12;;;;;;;;;0.00;0.00;;;;;-146.37;100.00;59337.28;5046969;28;47756;-82
2023/01/11 03:15:02;;;;;;;;;0.00;0.00;;;;;-146.37;100.00;59337.28;5064463;28;45760;-81
2023/01/11 03:17:48;;;;;;;;;0.00;0.00;;;;;-146.37;100.00;59337.28;5064752;28;45400;-82
2023/01/11 03:20:27;;;;;;;;;0.00;0.00;;;;;-146.37;100.00;59337.28;5064782;28;45500;-82
2023/01/11 03:23:21;;;;;;;;;1.00;0.00;;;;;-146.37;100.00;59337.28;5046204;28;45544;-82
2023/01/11 03:25:57;;;;;;;;;0.00;0.00;;;;;-146.37;100.00;59337.28;5065143;28;44813;-82
2023/01/11 03:28:26;;;;;;;;;0.00;0.00;;;;;-146.37;100.00;59337.28;5046402;28;45422;-82
2023/01/11 03:31:07;;;;;;;;;0.00;0.00;;;;;-146.37;100.00;59337.28;5045520;28;47166;-82
2023/01/11 03:33:47;;;;;;;;;0.00;0.00;;;;;-146.37;100.00;59337.28;5045108;28;44894;-82
2023/01/11 03:36:31;;;;;;;;;0.00;0.00;;;;;-146.37;100.00;59337.28;5045622;28;45446;-82
2023/01/11 03:39:07;;;;;;;;;0.00;0.00;;;;;-146.37;100.00;59337.28;5046138;28;45508;-82
2023/01/11 03:45:22;;;;;;;;;0.00;0.00;;;;;-146.37;100.00;59337.28;5043423;28;45439;-82
2023/01/11 03:47:47;;;;;;;;;0.00;0.00;;;;;-146.37;100.00;59337.28;5044678;28;45942;-82
2023/01/11 03:50:15;;;;;;;;;0.00;0.00;;;;;-146.37;100.00;59337.28;5028768;28;45403;-82
2023/01/11 03:52:42;;;;;;;;;0.00;0.00;;;;;-146.37;100.00;59337.28;5027081;28;48293;-82
2023/01/11 03:55:13;;;;;;;;;0.00;0.00;;;;;-146.37;100.00;59337.28;5044324;28;45361;-82
2023/01/11 03:57:43;;;;;;;;;0.00;0.00;;;;;-146.37;100.00;59337.28;5043330;28;45485;-82
2023/01/11 04:00:10;;;;;;;;;0.00;0.00;;;;;-146.37;100.00;59337.28;5046124;28;45453;-82
2023/01/11 04:02:39;;;;;;;;;0.00;0.00;;;;;-146.37;100.00;59337.28;5029221;28;47314;-82
2023/01/11 04:05:06;;;;;;;;;0.00;0.00;;;;;-146.37;100.00;59337.28;5025937;28;45815;-82
2023/01/11 04:07:32;;;;;;;;;0.00;0.00;;;;;-146.37;100.00;59337.28;5025002;28;45324;-82
2023/01/11 04:09:57;;;;;;;;;0.00;0.00;;;;;-146.37;100.00;59337.28;5026072;28;45790;-82
2023/01/11 04:12:24;;;;;;;;;0.00;0.00;;;;;-146.37;100.00;59337.28;5026759;28;46522;-82
2023/01/11 04:14:49;;;;;;;;;0.00;0.00;;;;;-146.37;100.00;59337.28;5028706;28;45382;-81
2023/01/11 04:17:15;;;;;;;;;0.00;0.00;;;;;-146.37;100.00;59337.28;5046478;28;45356;-82
2023/01/11 04:19:40;;;;;;;;;0.00;0.00;;;;;-146.37;100.00;59337.28;5028149;28;45324;-81
2023/01/11 04:22:06;;;;;;;;;0.00;0.00;;;;;-146.37;100.00;59337.28;5046082;28;46065;-82
2023/01/11 04:24:31;;;;;;;;;0.00;0.00;;;;;-146.37;100.00;59337.28;5028020;28;45424;-82
2023/01/11 04:26:56;;;;;;;;;0.00;0.00;;;;;-146.37;100.00;59337.28;5046097;28;45638;-82
2023/01/11 04:29:22;;;;;;;;;0.00;0.00;;;;;-146.37;100.00;59337.28;5028625;28;45419;-82
2023/01/11 04:31:47;;;;;;;;;0.00;0.00;;;;;-146.37;100.00;59337.28;5028582;28;47098;-81
2023/01/11 04:34:12;;;;;;;;;0.00;0.00;;;;;-146.37;100.00;59337.28;5047608;28;45554;-82
2023/01/11 04:36:38;;;;;;;;;0.00;0.00;;;;;-146.37;100.00;59337.28;5045173;28;45048;-82
2023/01/11 04:39:05;;;;;;;;;0.00;0.00;;;;;-146.37;100.00;59337.28;5048539;28;45458;-82
2023/01/11 04:44:14;;;;;;;;;0.00;0.00;;;;;-146.37;100.00;59337.28;5062952;28;45411;-82
2023/01/11 04:46:39;;;;;;;;;0.00;0.00;;;;;-146.37;100.00;59337.28;5051308;28;45453;-82
2023/01/11 04:49:05;;;;;;;;;0.00;0.00;;;;;-146.37;100.00;59337.28;5069237;28;45426;-83
2023/01/11 04:51:30;;;;;;;;;0.00;0.00;;;;;-146.37;100.00;59337.28;5067622;28;45798;-83
2023/01/11 04:53:56;;;;;;;;;0.00;0.00;;;;;-146.37;100.00;59337.28;5067358;28;45341;-82
2023/01/11 04:56:21;;;;;;;;;0.00;0.00;;;;;-146.37;100.00;59337.28;5047944;28;45413;-82
2023/01/11 04:58:46;;;;;;;;;0.00;0.00;;;;;-146.37;100.00;59337.28;5047955;28;45391;-81
2023/01/11 05:01:17;;;;;;;;;0.50;0.00;;;;;-146.37;100.00;59337.28;5048764;28;45604;-82
2023/01/11 05:03:44;;;;;;;;;0.00;0.00;;;;;-146.37;100.00;59337.28;5028170;28;45837;-81
2023/01/11 05:06:10;;;;;;;;;0.00;0.00;;;;;-146.37;100.00;59337.28;5046272;28;45501;-82
2023/01/11 05:08:35;;;;;;;;;0.00;0.00;;;;;-146.37;100.00;59337.28;5047699;28;45403;-83
2023/01/11 05:11:04;;;;;;;;;0.00;0.00;;;;;-146.37;100.00;59337.28;5048465;28;45749;-82
2023/01/11 05:13:42;;;;;;;;;0.00;0.00;;;;;-146.37;100.00;59337.28;5031172;28;45483;-82
2023/01/11 05:16:25;;;;;;;;;0.25;0.25;;;;;-146.37;100.00;59337.28;5047498;28;45882;-83
2023/01/11 05:18:56;;;;;;;;;2.00;0.00;;;;;-146.37;100.00;59337.28;5047280;28;45407;-82
2023/01/11 05:21:24;;;;;;;;;0.25;0.25;;;;;-146.37;100.00;59337.28;5031666;28;46862;-84
2023/01/11 05:23:50;;;;;;;;;0.00;0.00;;;;;-146.37;100.00;59337.28;5059351;28;45420;-82
2023/01/11 05:26:25;;;;;;;;;0.00;0.00;;;;;-146.37;100.00;59337.28;5069215;28;45397;-82
2023/01/11 05:28:51;;;;;;;;;0.75;0.00;;;;;-146.37;100.00;59337.28;5067431;28;45421;-82
2023/01/11 05:31:17;;;;;;;;;0.00;0.00;;;;;-146.37;100.00;59337.28;5069860;28;45888;-81
2023/01/11 05:33:43;;;;;;;;;1.00;0.00;;;;;-146.37;100.00;59337.28;5069156;28;45496;-81
2023/01/11 05:36:15;;;;;;;;;1.00;1.00;;;;;-146.37;100.00;59337.28;5053871;28;44892;-81
2023/01/11 05:38:42;;;;;;;;;0.25;0.00;;;;;-146.37;100.00;59337.28;5054696;28;45426;-82
2023/01/11 05:41:09;;;;;;;;;2.00;0.00;;;;;-146.37;100.00;59337.28;5053921;28;44978;-81
2023/01/11 05:45:27;;;;;;;;;3.50;1.00;;;;;-146.37;100.00;59337.28;5049914;28;45511;-82
2023/01/11 05:46:21;;;;;;;;;5.00;2.00;;;;;-146.37;100.00;59337.28;5068509;28;45440;-81
2023/01/11 05:48:47;;;;;;;;;2.00;0.25;;;;;-146.37;100.00;59337.28;5052747;28;45358;-82
2023/01/11 05:51:13;;;;;;;;;0.00;0.00;;;;;-146.37;100.00;59337.28;5048741;28;46894;-82
2023/01/11 05:53:39;;;;;;;;;0.00;0.00;;;;;-146.37;100.00;59337.28;5069560;28;45404;-82
2023/01/11 05:56:04;;;;;;;;;1.00;1.00;;;;;-146.37;100.00;59337.28;5048490;28;45466;-81
2023/01/11 05:58:30;;;;;;;;;1.00;1.00;;;;;-146.37;100.00;59337.28;5050060;28;45512;-81
2023/01/11 06:00:55;;;;;;;;;1.75;1.00;;;;;-146.37;100.00;59337.28;5064917;28;46956;-82
2023/01/11 06:03:23;;;;;;;;;1.25;1.25;;;;;-146.37;100.00;59337.28;5066608;28;45334;-82
2023/01/11 06:05:49;;;;;;;;;1.00;0.00;;;;;-146.37;100.00;59337.28;5046899;28;45335;-82
2023/01/11 06:08:15;;;;;;;;;0.50;0.50;;;;;-146.37;100.00;59337.28;5048947;28;45490;-82
2023/01/11 06:10:41;;;;;;;;;3.00;2.00;;;;;-146.37;100.00;59337.28;5065174;28;45399;-82
2023/01/11 06:13:25;;;;;;;;;2.00;2.00;;;;;-146.37;100.00;59337.28;5065645;28;44759;-81
2023/01/11 06:15:56;;;;;;;;;3.25;2.00;;;;;-146.37;100.00;59337.28;5048507;28;44879;-81
2023/01/11 06:18:22;;;;;;;;;2.00;1.00;;;;;-146.37;100.00;59337.28;5048619;28;45710;-82
2023/01/11 06:20:49;;;;;;;;;1.00;1.00;;;;;-146.37;100.00;59337.28;5048333;28;46765;-82
2023/01/11 06:23:15;;;;;;;;;1.50;1.25;;;;;-146.37;100.00;59337.28;5049873;28;45470;-83
2023/01/11 06:25:41;;;;;;;;;1.00;1.00;;;;;-146.37;100.00;59337.28;5050835;28;45788;-83
2023/01/11 06:28:06;;;;;;;;;1.00;1.00;;;;;-146.37;100.00;59337.28;5052070;28;45735;-83
2023/01/11 06:30:32;;;;;;;;;1.75;1.75;;;;;-146.37;100.00;59337.28;5067984;28;45402;-83
2023/01/11 06:33:04;;;;;;;;;3.50;0.00;;;;;-146.37;100.00;59337.28;5049409;28;45314;-83
2023/01/11 06:35:31;;;;;;;;;1.75;1.50;;;;;-146.37;100.00;59337.28;5065241;28;45538;-83
2023/01/11 06:37:57;;;;;;;;;1.00;0.25;;;;;-146.37;100.00;59337.28;5051253;28;45381;-83
2023/01/11 06:40:22;;;;;;;;;1.75;1.50;;;;;-146.37;100.00;59337.28;5069928;28;45594;-83
2023/01/11 06:42:48;;;;;;;;;3.50;1.50;;;;;-146.37;100.00;59337.28;5050768;28;45434;-83
2023/01/11 06:45:13;;;;;;;;;4.00;3.25;;;;;-146.37;100.00;59337.28;5067993;28;45338;-83
2023/01/11 06:47:38;;;;;;;;;4.25;2.25;;;;;-146.37;100.00;59337.28;5050100;28;45585;-83
2023/01/11 06:50:04;;;;;;;;;2.00;1.50;;;;;-146.37;100.00;59337.28;5052123;28;48553;-83
2023/01/11 06:52:30;;;;;;;;;4.75;1.75;;;;;-146.37;100.00;59337.28;5052755;28;45319;-83
2023/01/11 06:54:55;;;;;;;;;2.75;1.00;;;;;-146.37;100.00;59337.28;5052937;28;45437;-83
2023/01/11 06:57:21;;;;;;;;;0.75;0.75;;;;;-146.37;100.00;59337.28;5055418;28;45483;-83
2023/01/11 06:59:46;;;;;;;;;1.00;1.00;;;;;-146.37;100.00;59337.28;5054549;28;48079;-83
2023/01/11 07:02:12;;;;;;;;;5.00;2.00;;;;;-146.37;100.00;59337.28;5074008;28;45507;-82
2023/01/11 07:04:37;;;;;;;;;3.00;3.00;;;;;-146.37;100.00;59337.28;5071437;28;45195;-83
2023/01/11 07:07:03;;;;;;;;;3.75;1.75;;;;;-146.37;100.00;59337.28;5072307;28;45430;-82
2023/01/11 07:09:28;;;;;;;;;2.50;1.00;;;;;-146.37;100.00;59337.28;5069057;28;46759;-83
2023/01/11 07:11:53;;;;;;;;;0.25;0.25;;;;;-146.37;100.00;59337.28;5052578;28;45461;-83
2023/01/11 07:17:41;;;;;;;;;2.00;2.00;;;;;-146.37;100.00;59337.28;5069520;28;45409;-81
2023/01/11 07:20:07;;;;;;;;;2.25;1.00;;;;;-146.37;100.00;59337.28;5050366;28;46655;-82
2023/01/11 07:22:34;;;;;;;;;1.25;1.25;;;;;-146.37;100.00;59337.28;5051589;28;45562;-79
2023/01/11 07:25:00;;;;;;;;;1.00;1.00;;;;;-146.37;100.00;59337.28;5048658;28;45311;-81
2023/01/11 07:30:48;;;;;;;;;1.50;1.50;;;;;-146.37;100.00;59337.28;5065663;28;46052;-80
2023/01/11 07:33:14;;;;;;;;;2.50;2.50;;;;;-146.37;100.00;59337.28;5046116;28;45623;-79
2023/01/11 07:35:40;;;;;;;;;1.50;0.75;;;;;-146.37;100.00;59337.28;5065554;28;45418;-80
2023/01/11 07:38:08;;;;;;;;;2.25;2.25;;;;;-146.37;100.00;59337.28;5049173;28;45445;-80
2023/01/11 07:40:36;;;;;;;;;1.00;0.50;;;;;-146.37;100.00;59337.28;5049055;28;47202;-81
2023/01/11 07:43:13;;;;;;;;;3.25;2.25;;;;;-146.37;100.00;59337.28;5068780;28;45347;-82
2023/01/11 07:45:44;;;;;;;;;1.75;1.75;;;;;-146.37;100.00;59337.28;5070228;28;44874;-82
2023/01/11 07:48:11;;;;;;;;;7.50;2.00;;;;;-146.37;100.00;59337.28;5052569;28;45428;-81
2023/01/11 07:50:38;;;;;;;;;1.75;1.75;;;;;-146.37;100.00;59337.28;5068235;28;46219;-81
2023/01/11 07:56:25;;;;;;;;;4.25;1.75;;;;;-146.37;100.00;59337.28;5046769;28;45418;-82
2023/01/11 07:58:51;;;;;;;;;2.00;2.00;;;;;-146.37;100.00;59337.28;5060323;28;45431;-79
2023/01/11 08:01:19;;;;;;;;;3.00;3.00;;;;;-146.37;100.00;59337.28;5053818;27;47886;-80
2023/01/11 08:03:45;;;;;;;;;4.00;4.00;;;;;-146.37;100.00;59337.28;5038221;28;46796;-81
2023/01/11 08:06:13;;;;;;;;;4.75;2.50;;;;;-146.37;100.00;59337.28;5042735;28;45306;-81
2023/01/11 08:08:39;;;;;;;;;2.75;1.50;;;;;-146.37;100.00;59337.28;5069683;28;45390;-80
2023/01/11 08:16:34;;;;;;;;;1.00;1.00;;;;;-146.37;100.00;59337.28;5059120;28;45495;-81
2023/01/11 08:19:00;;;;;;;;;3.50;1.75;;;;;-146.37;100.00;59337.28;5030731;28;45462;-79
2023/01/11 08:21:26;;;;;;;;;3.75;2.00;;;;;-146.37;100.00;59337.28;5042069;28;48940;-80
2023/01/11 08:23:53;;;;;;;;;1.50;1.50;;;;;-146.37;100.00;59337.28;5045016;28;45446;-81
2023/01/11 08:26:18;;;;;;;;;3.50;2.00;;;;;-146.37;100.00;59337.28;5066237;28;45787;-80
2023/01/11 08:28:45;;;;;;;;;2.00;2.00;;;;;-146.37;100.00;59337.28;5052511;28;45422;-78
2023/01/11 08:31:12;;;;;;;;;4.00;2.50;;;;;-146.37;100.00;59337.28;5066054;28;46832;-84
2023/01/11 08:33:38;;;;;;;;;2.75;2.50;;;;;-146.37;100.00;59337.28;5070749;28;44793;-82
2023/01/11 08:36:05;;;;;;;;;5.00;3.25;;;;;-146.37;100.00;59337.28;5072262;28;45374;-80
2023/01/11 08:38:31;;;;;;;;;1.75;1.75;;;;;-146.37;100.00;59337.28;5068519;28;45508;-79
2023/01/11 08:40:57;;;;;;;;;1.50;1.00;;;;;-146.37;100.00;59337.28;5051136;28;45405;-80
2023/01/11 08:43:23;;;;;;;;;4.25;2.00;;;;;-146.37;100.00;59337.28;5066504;28;45444;-81
2023/01/11 08:45:51;;;;;;;;;3.25;2.00;;;;;-146.37;100.00;59337.28;5067988;28;45488;-79
2023/01/11 08:48:18;;;;;;;;;3.00;1.75;;;;;-146.37;100.00;59337.28;5067844;28;45283;-81
2023/01/11 08:50:44;;;;;;;;;2.25;2.00;;;;;-146.37;100.00;59337.28;5065159;28;45322;-79
2023/01/11 08:53:11;;;;;;;;;1.00;1.00;;;;;-146.37;100.00;59337.28;5049558;28;45323;-80
2023/01/11 08:55:37;;;;;;;;;3.75;3.75;;;;;-146.37;100.00;59337.28;5049422;28;45409;-80
2023/01/11 08:58:02;;;;;;;;;3.75;2.25;;;;;-146.37;100.00;59337.28;5066788;28;45543;-81
2023/01/11 09:00:34;;;;;;;;;5.75;2.75;;;;;-146.37;100.00;59337.28;5059782;28;45192;-81
2023/01/11 09:03:11;;;;;;;;;2.00;2.00;;;;;-146.37;100.00;59337.28;5069862;28;45373;-80
2023/01/11 09:05:38;;;;;;;;;2.00;1.25;;;;;-146.37;100.00;59337.28;5053411;28;45406;-80
2023/01/11 09:08:05;;;;;;;;;2.00;2.00;;;;;-146.37;100.00;59337.28;5066032;28;45461;-81
2023/01/11 09:10:30;;;;;;;;;3.00;3.00;;;;;-146.37;100.00;59337.28;5059146;28;47073;-79
2023/01/11 09:12:56;;;;;;;;;2.50;2.00;;;;;-146.37;100.00;59337.28;5066257;28;44854;-81
2023/01/11 09:15:24;;;;;;;;;6.00;3.00;;;;;-146.37;100.00;59337.28;5069296;28;45460;-81
2023/01/11 09:17:51;;;;;;;;;2.75;2.75;;;;;-146.37;100.00;59337.28;5073161;28;45397;-80
2023/01/11 09:20:19;;;;;;;;;3.00;1.25;;;;;-146.37;100.00;59337.28;5068874;28;45347;-79
2023/01/11 09:22:46;;;;;;;;;5.00;2.00;;;;;-146.37;100.00;59337.28;5046233;28;45489;-81
2023/01/11 09:25:13;;;;;;;;;3.50;2.00;;;;;-146.37;100.00;59337.28;5059588;28;45441;-81
2023/01/11 09:27:43;;;;;;;;;2.00;1.50;;;;;-146.37;100.00;59337.28;5028659;28;45529;-79
2023/01/11 09:30:13;;;;;;;;;2.75;2.75;;;;;-146.37;100.00;59337.28;5058264;28;45403;-79
2023/01/11 09:32:40;;;;;;;;;4.75;2.25;;;;;-146.37;100.00;59337.28;5067574;28;45381;-79
2023/01/11 09:35:07;;;;;;;;;3.50;3.50;;;;;-146.37;100.00;59337.28;5067141;28;45365;-79
2023/01/11 09:37:40;;;;;;;;;2.00;2.00;;;;;-146.37;100.00;59337.28;5050185;28;45492;-79
2023/01/11 09:40:16;;;;;;;;;5.00;4.00;;;;;-146.37;100.00;59337.28;5057824;28;46432;-80
2023/01/11 09:42:42;;;;;;;;;2.00;2.00;;;;;-146.37;100.00;59337.28;5046374;28;45416;-81
2023/01/11 09:45:31;;;;;;;;;3.50;2.50;;;;;-146.37;100.00;59337.28;5070523;28;45416;-80
2023/01/11 09:48:10;;;;;;;;;3.00;3.00;;;;;-146.37;100.00;59337.28;5032901;28;45854;-79
2023/01/11 09:50:42;;;;;;;;;3.00;2.00;;;;;-146.37;100.00;59337.28;5068210;28;46993;-81
2023/01/11 09:53:33;;;;;;;;;2.00;2.00;;;;;-146.37;100.00;59337.28;5049464;28;45459;-83
2023/01/11 09:56:10;;;;;;;;;2.00;1.00;;;;;-146.37;100.00;59337.28;5049652;28;45384;-80
2023/01/11 09:59:09;;;;;;;;;4.00;3.33;;;;;-146.37;100.00;59337.28;5067934;28;45433;-81
2023/01/11 10:01:54;;;;;;;;;2.25;2.25;;;;;-146.37;100.00;59337.28;5052744;28;47278;-81
2023/01/11 10:04:44;;;;;;;;;3.00;1.00;;;;;-146.37;100.00;59337.28;5072831;28;45312;-80
2023/01/11 10:10:47;;;;;;;;;2.67;2.33;;;;;-146.37;100.00;59337.28;5071381;28;45473;-81
2023/01/11 10:13:27;;;;;;;;;1.00;1.00;;;;;-146.37;100.00;59337.28;5049462;28;45579;-82
2023/01/11 10:16:00;;;;;;;;;0.00;0.00;;;;;-146.37;100.00;59337.28;5061496;28;45588;-80
2023/01/11 10:18:42;;;;;;;;;3.33;2.33;;;;;-146.37;100.00;59337.28;5065784;28;44823;-81
2023/01/11 10:21:19;;;;;;;;;1.00;1.00;;;;;-146.37;100.00;59337.28;5048917;28;45224;-79
2023/01/11 10:24:11;;;;;;;;;4.25;3.25;;;;;-146.37;100.00;59337.28;5050632;28;47706;-81
2023/01/11 10:26:41;;;;;;;;;2.75;1.00;;;;;-146.37;100.00;59337.28;5051517;28;45468;-81
2023/01/11 10:29:21;;;;;;;;;2.33;1.67;;;;;-146.37;100.00;59337.28;5066413;28;45482;-81
2023/01/11 10:39:20;;;;;;;;;2.50;2.50;;;;;-146.37;100.00;59337.28;5020726;28;45339;-81
2023/01/11 10:42:01;;;;;;;;;3.00;3.00;;;;;-146.37;100.00;59337.28;5005819;28;45564;-78
2023/01/11 10:44:36;;;;;;;;;2.75;2.75;;;;;-146.37;100.00;59337.28;5002472;28;45499;-83
2023/01/11 10:47:06;;;;;;;;;3.25;2.25;;;;;-146.37;100.00;59337.28;4993619;28;45759;-81
2023/01/11 10:50:06;;;;;;;;;4.25;2.00;;;;;-146.37;100.00;59337.28;4988865;28;45415;-80
2023/01/11 10:53:06;;;;;;;;;2.25;2.00;;;;;-146.37;100.00;59337.28;4979732;28;45480;-81
2023/01/11 10:55:54;;;;;;;;;2.00;2.00;;;;;-146.37;100.00;59337.28;4998500;28;45348;-81
2023/01/11 11:01:50;;;;;;;;;2.25;2.25;;;;;-146.37;100.00;59337.28;4990315;28;45514;-82
2023/01/11 11:04:44;;;;;;;;;2.00;1.00;;;;;-146.37;100.00;59337.28;4987618;28;44968;-81
2023/01/11 11:07:42;;;;;;;;;2.00;2.00;;;;;-146.37;100.00;59337.28;5046085;28;45547;-81
2023/01/11 11:10:17;;;;;;;;;1.50;1.50;;;;;-146.37;100.00;59337.28;4998155;28;45584;-80
2023/01/11 11:13:00;;;;;;;;;3.00;1.75;;;;;-146.37;100.00;59337.28;4997053;28;44924;-83
2023/01/11 11:15:50;;;;;;;;;1.75;1.75;;;;;-146.37;100.00;59337.28;4991947;28;45703;-82
2023/01/11 11:21:44;;;;;;;;;5.75;4.50;;;;;-146.37;100.00;59337.28;4997704;28;45597;-82
2023/01/11 11:24:31;;;;;;;;;2.00;2.00;;;;;-146.37;100.00;59337.28;4994734;28;44831;-82
2023/01/11 11:27:26;;;;;;;;;4.00;3.00;;;;;-146.37;100.00;59337.28;4977563;28;45322;-81
2023/01/11 11:29:55;;;;;;;;;3.00;1.75;;;;;-146.37;100.00;59337.28;4970254;28;45702;-78
2023/01/11 11:32:34;;;;;;;;;3.00;2.75;;;;;-146.37;100.00;59337.28;4986339;28;45444;-78
2023/01/11 11:35:00;;;;;;;;;2.00;2.00;;;;;-146.37;100.00;59337.28;4984028;28;45617;-79
2023/01/11 11:37:43;;;;;;;;;2.75;2.75;;;;;-146.37;100.00;59337.28;4960176;28;45840;-80
2023/01/11 11:40:31;;;;;;;;;3.00;2.00;;;;;-146.37;100.00;59337.28;4952889;28;45468;-79
2023/01/11 11:43:18;;;;;;;;;2.50;2.00;;;;;-146.37;100.00;59337.28;4970774;28;46176;-80
2023/01/11 11:45:56;;;;;;;;;2.75;2.75;;;;;-146.37;100.00;59337.28;5000246;28;45525;-81
2023/01/11 11:48:24;;;;;;;;;3.00;3.00;;;;;-146.37;100.00;59337.28;4985300;28;45522;-79
2023/01/11 11:50:51;;;;;;;;;2.25;1.50;;;;;-146.37;100.00;59337.28;4973180;28;45467;-79
2023/01/11 11:53:53;;;;;;;;;5.50;1.75;;;;;-146.37;100.00;59337.28;4989925;28;47868;-80
2023/01/11 11:56:34;;;;;;;;;2.75;2.75;;;;;-146.37;100.00;59337.28;4986459;28;45472;-81
2023/01/11 11:59:34;;;;;;;;;2.00;2.00;;;;;-146.37;100.00;59337.28;4995901;28;45582;-85
2023/01/11 12:02:25;;;;;;;;;2.00;2.00;;;;;-146.37;100.00;59337.28;4978571;28;45567;-81
2023/01/11 12:04:55;;;;;;;;;4.75;2.50;;;;;-146.37;100.00;59337.28;5013305;28;45441;-83
2023/01/11 12:07:31;;;;;;;;;4.75;3.75;;;;;-146.37;100.00;59337.28;5030268;28;45386;-83
2023/01/11 12:10:05;;;;;;;;;3.75;2.00;;;;;-146.37;100.00;59337.28;5020805;28;45237;-84
2023/01/11 12:12:47;;;;;;;;;1.25;1.25;;;;;-146.37;100.00;59337.28;5036964;28;45414;-82
2023/01/11 12:15:23;;;;;;;;;1.25;1.25;;;;;-146.37;100.00;59337.28;5041804;28;45394;-83
2023/01/11 12:17:53;;;;;;;;;2.00;1.75;;;;;-146.37;100.00;59337.28;5043245;28;45424;-81
2023/01/11 12:20:35;;;;;;;;;2.75;2.75;;;;;-146.37;100.00;59337.28;5047760;28;45401;-82
2023/01/11 12:23:25;;;;;;;;;3.00;1.75;;;;;-146.37;100.00;59337.28;5022260;28;45461;-80
2023/01/11 12:25:53;;;;;;;;;5.25;4.50;;;;;-146.37;100.00;59337.28;5027986;28;46932;-83
2023/01/11 12:28:49;;;;;;;;;3.75;2.00;;;;;-146.37;100.00;59337.28;5026903;28;45502;-81
2023/01/11 12:35:09;;;;;;;;;14.67;10.67;;;;;-146.37;100.00;59337.28;5043533;28;45524;-81
2023/01/11 12:38:05;;;;;;;;;;;;;;;;;;;;;